sensor_id;sensor_type;location;lat;lon;timestamp;P1;durP1;ratioP1;P2;durP2;ratioP2
42134;SDS011;28312;43.460;11.810;2023-01-01T00:03:37;14.23;;;5.70;;
42134;SDS011;28312;43.460;11.810;2023-01-01T00:07:41;40.30;;;16.55;;
42134;SDS011;28312;43.460;11.810;2023-01-01T00:11:44;31.05;;;11.63;;
42134;SDS011;28312;43.460;11.810;2023-01-01T00:15:48;38.72;;;16.40;;
42134;SDS011;28312;43.460;11.810;2023-01-01T00:19:51;12.30;;;9.07;;
42134;SDS011;28312;43.460;11.810;2023-01-01T00:23:55;23.33;;;10.55;;
42134;SDS011;28312;43.460;11.810;2023-01-01T00:27:59;28.85;;;21.00;;
42134;SDS011;28312;43.460;11.810;2023-01-01T00:32:03;30.20;;;14.35;;
42134;SDS011;28312;43.460;11.810;2023-01-01T00:36:12;19.95;;;13.18;;
42134;SDS011;28312;43.460;11.810;2023-01-01T00:40:16;35.78;;;23.35;;
42134;SDS011;28312;43.460;11.810;2023-01-01T00:44:20;102.15;;;47.70;;
42134;SDS011;28312;43.460;11.810;2023-01-01T00:48:24;31.75;;;21.55;;
42134;SDS011;28312;43.460;11.810;2023-01-01T00:52:28;57.20;;;34.70;;
42134;SDS011;28312;43.460;11.810;2023-01-01T00:56:31;52.35;;;31.98;;
42134;SDS011;28312;43.460;11.810;2023-01-01T01:00:35;61.60;;;32.88;;
42134;SDS011;28312;43.460;11.810;2023-01-01T01:04:40;25.25;;;17.83;;
42134;SDS011;28312;43.460;11.810;2023-01-01T01:08:45;39.00;;;25.92;;
42134;SDS011;28312;43.460;11.810;2023-01-01T01:12:48;38.53;;;24.65;;
42134;SDS011;28312;43.460;11.810;2023-01-01T01:16:53;27.83;;;16.55;;
42134;SDS011;28312;43.460;11.810;2023-01-01T01:20:56;25.88;;;16.35;;
42134;SDS011;28312;43.460;11.810;2023-01-01T01:25:02;22.98;;;13.70;;
42134;SDS011;28312;43.460;11.810;2023-01-01T01:29:07;24.08;;;15.80;;
42134;SDS011;28312;43.460;11.810;2023-01-01T01:33:10;43.03;;;21.30;;
42134;SDS011;28312;43.460;11.810;2023-01-01T01:37:14;26.45;;;17.88;;
42134;SDS011;28312;43.460;11.810;2023-01-01T01:41:19;40.05;;;25.17;;
42134;SDS011;28312;43.460;11.810;2023-01-01T01:45:30;32.20;;;18.10;;
42134;SDS011;28312;43.460;11.810;2023-01-01T01:49:34;14.13;;;9.77;;
42134;SDS011;28312;43.460;11.810;2023-01-01T01:53:44;43.70;;;23.45;;
42134;SDS011;28312;43.460;11.810;2023-01-01T01:57:48;24.55;;;16.65;;
42134;SDS011;28312;43.460;11.810;2023-01-01T02:01:52;27.40;;;16.42;;
42134;SDS011;28312;43.460;11.810;2023-01-01T02:05:57;26.52;;;15.75;;
42134;SDS011;28312;43.460;11.810;2023-01-01T02:10:01;18.33;;;11.90;;
42134;SDS011;28312;43.460;11.810;2023-01-01T02:14:05;19.08;;;11.93;;
42134;SDS011;28312;43.460;11.810;2023-01-01T02:18:12;15.75;;;10.68;;
42134;SDS011;28312;43.460;11.810;2023-01-01T02:22:21;16.17;;;8.15;;
42134;SDS011;28312;43.460;11.810;2023-01-01T02:30:40;22.05;;;10.40;;
42134;SDS011;28312;43.460;11.810;2023-01-01T02:34:50;22.58;;;13.57;;
42134;SDS011;28312;43.460;11.810;2023-01-01T02:38:55;20.40;;;15.35;;
42134;SDS011;28312;43.460;11.810;2023-01-01T02:43:03;20.63;;;13.52;;
42134;SDS011;28312;43.460;11.810;2023-01-01T02:47:09;23.83;;;13.50;;
42134;SDS011;28312;43.460;11.810;2023-01-01T02:55:39;29.10;;;18.10;;
42134;SDS011;28312;43.460;11.810;2023-01-01T03:00:06;20.27;;;11.20;;
42134;SDS011;28312;43.460;11.810;2023-01-01T03:04:42;19.73;;;12.57;;
42134;SDS011;28312;43.460;11.810;2023-01-01T03:17:34;40.45;;;18.08;;
42134;SDS011;28312;43.460;11.810;2023-01-01T03:21:43;34.50;;;14.32;;
42134;SDS011;28312;43.460;11.810;2023-01-01T03:25:50;34.08;;;13.20;;
42134;SDS011;28312;43.460;11.810;2023-01-01T03:29:54;16.05;;;11.52;;
42134;SDS011;28312;43.460;11.810;2023-01-01T03:34:01;13.70;;;9.32;;
42134;SDS011;28312;43.460;11.810;2023-01-01T03:38:07;11.80;;;8.55;;
42134;SDS011;28312;43.460;11.810;2023-01-01T03:42:20;17.23;;;8.82;;
42134;SDS011;28312;43.460;11.810;2023-01-01T03:46:25;16.90;;;11.07;;
42134;SDS011;28312;43.460;11.810;2023-01-01T03:50:43;31.23;;;13.02;;
42134;SDS011;28312;43.460;11.810;2023-01-01T04:03:14;33.92;;;13.77;;
42134;SDS011;28312;43.460;11.810;2023-01-01T04:07:21;15.15;;;8.23;;
42134;SDS011;28312;43.460;11.810;2023-01-01T04:11:27;12.75;;;7.32;;
42134;SDS011;28312;43.460;11.810;2023-01-01T04:15:51;9.02;;;6.07;;
42134;SDS011;28312;43.460;11.810;2023-01-01T04:19:55;21.42;;;9.57;;
42134;SDS011;28312;43.460;11.810;2023-01-01T04:23:59;10.90;;;6.90;;
42134;SDS011;28312;43.460;11.810;2023-01-01T04:28:02;40.63;;;11.85;;
42134;SDS011;28312;43.460;11.810;2023-01-01T04:32:06;28.88;;;9.60;;
42134;SDS011;28312;43.460;11.810;2023-01-01T04:36:10;25.20;;;13.48;;
42134;SDS011;28312;43.460;11.810;2023-01-01T04:40:14;21.60;;;12.30;;
42134;SDS011;28312;43.460;11.810;2023-01-01T04:44:17;10.38;;;6.10;;
42134;SDS011;28312;43.460;11.810;2023-01-01T04:48:21;33.95;;;9.95;;
42134;SDS011;28312;43.460;11.810;2023-01-01T04:52:25;18.20;;;9.85;;
42134;SDS011;28312;43.460;11.810;2023-01-01T04:56:29;8.38;;;5.70;;
42134;SDS011;28312;43.460;11.810;2023-01-01T05:00:33;8.77;;;5.85;;
42134;SDS011;28312;43.460;11.810;2023-01-01T05:04:36;32.78;;;8.60;;
42134;SDS011;28312;43.460;11.810;2023-01-01T05:08:41;32.00;;;10.90;;
42134;SDS011;28312;43.460;11.810;2023-01-01T05:12:45;58.95;;;14.63;;
42134;SDS011;28312;43.460;11.810;2023-01-01T05:16:48;23.70;;;14.45;;
42134;SDS011;28312;43.460;11.810;2023-01-01T05:20:52;39.00;;;10.80;;
42134;SDS011;28312;43.460;11.810;2023-01-01T05:24:56;8.88;;;5.65;;
42134;SDS011;28312;43.460;11.810;2023-01-01T05:29:00;19.63;;;9.60;;
42134;SDS011;28312;43.460;11.810;2023-01-01T05:33:03;10.10;;;7.07;;
42134;SDS011;28312;43.460;11.810;2023-01-01T05:37:07;11.73;;;7.40;;
42134;SDS011;28312;43.460;11.810;2023-01-01T05:41:12;12.38;;;9.02;;
42134;SDS011;28312;43.460;11.810;2023-01-01T05:45:16;12.38;;;8.10;;
42134;SDS011;28312;43.460;11.810;2023-01-01T05:49:19;8.85;;;5.80;;
42134;SDS011;28312;43.460;11.810;2023-01-01T05:53:24;19.50;;;10.05;;
42134;SDS011;28312;43.460;11.810;2023-01-01T05:57:28;14.48;;;7.88;;
42134;SDS011;28312;43.460;11.810;2023-01-01T06:01:32;10.95;;;6.85;;
42134;SDS011;28312;43.460;11.810;2023-01-01T06:05:44;7.57;;;5.13;;
42134;SDS011;28312;43.460;11.810;2023-01-01T06:09:48;10.20;;;6.43;;
42134;SDS011;28312;43.460;11.810;2023-01-01T06:13:56;9.75;;;5.47;;
42134;SDS011;28312;43.460;11.810;2023-01-01T06:18:02;11.77;;;7.68;;
42134;SDS011;28312;43.460;11.810;2023-01-01T06:22:09;8.38;;;5.32;;
42134;SDS011;28312;43.460;11.810;2023-01-01T06:30:18;7.20;;;4.57;;
42134;SDS011;28312;43.460;11.810;2023-01-01T06:34:23;8.95;;;4.85;;
42134;SDS011;28312;43.460;11.810;2023-01-01T06:38:28;7.85;;;4.88;;
42134;SDS011;28312;43.460;11.810;2023-01-01T06:42:33;17.20;;;6.38;;
42134;SDS011;28312;43.460;11.810;2023-01-01T06:46:37;15.10;;;6.97;;
42134;SDS011;28312;43.460;11.810;2023-01-01T06:50:43;7.93;;;4.80;;
42134;SDS011;28312;43.460;11.810;2023-01-01T06:54:47;8.07;;;5.43;;
42134;SDS011;28312;43.460;11.810;2023-01-01T06:58:52;6.05;;;3.92;;
42134;SDS011;28312;43.460;11.810;2023-01-01T07:02:56;7.03;;;4.28;;
42134;SDS011;28312;43.460;11.810;2023-01-01T07:07:03;6.80;;;4.40;;
42134;SDS011;28312;43.460;11.810;2023-01-01T07:11:07;7.20;;;4.45;;
42134;SDS011;28312;43.460;11.810;2023-01-01T07:15:11;18.75;;;8.75;;
42134;SDS011;28312;43.460;11.810;2023-01-01T07:19:15;11.55;;;8.02;;
42134;SDS011;28312;43.460;11.810;2023-01-01T07:23:19;7.95;;;5.90;;
42134;SDS011;28312;43.460;11.810;2023-01-01T07:27:22;11.10;;;6.07;;
42134;SDS011;28312;43.460;11.810;2023-01-01T07:31:26;8.02;;;5.13;;
42134;SDS011;28312;43.460;11.810;2023-01-01T07:35:30;17.52;;;8.90;;
42134;SDS011;28312;43.460;11.810;2023-01-01T07:39:34;7.65;;;4.57;;
42134;SDS011;28312;43.460;11.810;2023-01-01T07:43:38;14.90;;;7.57;;
42134;SDS011;28312;43.460;11.810;2023-01-01T07:47:42;12.55;;;5.53;;
42134;SDS011;28312;43.460;11.810;2023-01-01T07:51:46;6.68;;;4.88;;
42134;SDS011;28312;43.460;11.810;2023-01-01T07:55:49;7.97;;;5.05;;
42134;SDS011;28312;43.460;11.810;2023-01-01T07:59:53;8.75;;;4.85;;
42134;SDS011;28312;43.460;11.810;2023-01-01T08:03:57;9.93;;;5.18;;
42134;SDS011;28312;43.460;11.810;2023-01-01T08:08:03;6.32;;;3.70;;
42134;SDS011;28312;43.460;11.810;2023-01-01T08:12:07;10.63;;;4.60;;
42134;SDS011;28312;43.460;11.810;2023-01-01T08:16:10;6.70;;;3.63;;
42134;SDS011;28312;43.460;11.810;2023-01-01T08:20:15;21.10;;;5.85;;
42134;SDS011;28312;43.460;11.810;2023-01-01T08:24:18;7.28;;;4.05;;
42134;SDS011;28312;43.460;11.810;2023-01-01T08:28:22;5.03;;;3.15;;
42134;SDS011;28312;43.460;11.810;2023-01-01T08:32:25;6.40;;;3.17;;
42134;SDS011;28312;43.460;11.810;2023-01-01T08:36:30;6.93;;;3.47;;
42134;SDS011;28312;43.460;11.810;2023-01-01T08:40:33;9.30;;;5.07;;
42134;SDS011;28312;43.460;11.810;2023-01-01T08:44:38;6.10;;;4.40;;
42134;SDS011;28312;43.460;11.810;2023-01-01T08:48:44;9.05;;;5.13;;
42134;SDS011;28312;43.460;11.810;2023-01-01T08:52:48;8.02;;;4.00;;
42134;SDS011;28312;43.460;11.810;2023-01-01T08:56:51;11.50;;;6.07;;
42134;SDS011;28312;43.460;11.810;2023-01-01T09:00:55;14.40;;;6.93;;
42134;SDS011;28312;43.460;11.810;2023-01-01T09:04:59;13.15;;;8.57;;
42134;SDS011;28312;43.460;11.810;2023-01-01T09:09:02;10.57;;;6.03;;
42134;SDS011;28312;43.460;11.810;2023-01-01T09:13:06;9.00;;;4.95;;
42134;SDS011;28312;43.460;11.810;2023-01-01T09:17:09;14.65;;;4.63;;
42134;SDS011;28312;43.460;11.810;2023-01-01T09:21:14;9.68;;;4.70;;
42134;SDS011;28312;43.460;11.810;2023-01-01T09:25:18;7.32;;;4.30;;
42134;SDS011;28312;43.460;11.810;2023-01-01T09:29:24;11.60;;;4.40;;
42134;SDS011;28312;43.460;11.810;2023-01-01T09:33:28;7.63;;;3.97;;
42134;SDS011;28312;43.460;11.810;2023-01-01T09:37:33;9.90;;;4.03;;
42134;SDS011;28312;43.460;11.810;2023-01-01T09:41:58;26.15;;;11.57;;
42134;SDS011;28312;43.460;11.810;2023-01-01T09:46:06;9.98;;;4.80;;
42134;SDS011;28312;43.460;11.810;2023-01-01T09:50:11;5.88;;;3.65;;
42134;SDS011;28312;43.460;11.810;2023-01-01T09:54:38;6.03;;;3.87;;
42134;SDS011;28312;43.460;11.810;2023-01-01T09:58:39;8.68;;;4.05;;
42134;SDS011;28312;43.460;11.810;2023-01-01T10:19:19;10.65;;;8.05;;
42134;SDS011;28312;43.460;11.810;2023-01-01T10:23:25;18.67;;;8.32;;
42134;SDS011;28312;43.460;11.810;2023-01-01T10:27:41;8.63;;;5.22;;
42134;SDS011;28312;43.460;11.810;2023-01-01T10:31:47;17.63;;;9.68;;
42134;SDS011;28312;43.460;11.810;2023-01-01T10:35:51;16.35;;;6.45;;
42134;SDS011;28312;43.460;11.810;2023-01-01T10:39:58;11.68;;;6.15;;
42134;SDS011;28312;43.460;11.810;2023-01-01T10:44:04;39.33;;;10.23;;
42134;SDS011;28312;43.460;11.810;2023-01-01T10:52:13;6.57;;;3.88;;
42134;SDS011;28312;43.460;11.810;2023-01-01T10:56:18;9.25;;;4.53;;
42134;SDS011;28312;43.460;11.810;2023-01-01T11:04:26;11.65;;;4.07;;
42134;SDS011;28312;43.460;11.810;2023-01-01T11:08:30;8.13;;;4.20;;
42134;SDS011;28312;43.460;11.810;2023-01-01T11:12:35;7.03;;;3.75;;
42134;SDS011;28312;43.460;11.810;2023-01-01T11:17:00;8.18;;;3.75;;
42134;SDS011;28312;43.460;11.810;2023-01-01T11:21:05;8.85;;;6.00;;
42134;SDS011;28312;43.460;11.810;2023-01-01T11:29:29;7.55;;;3.83;;
42134;SDS011;28312;43.460;11.810;2023-01-01T11:33:36;35.03;;;11.98;;
42134;SDS011;28312;43.460;11.810;2023-01-01T11:37:42;8.35;;;3.50;;
42134;SDS011;28312;43.460;11.810;2023-01-01T11:41:48;6.47;;;3.22;;
42134;SDS011;28312;43.460;11.810;2023-01-01T11:45:54;8.73;;;3.63;;
42134;SDS011;28312;43.460;11.810;2023-01-01T11:50:01;12.52;;;6.28;;
42134;SDS011;28312;43.460;11.810;2023-01-01T11:54:31;9.25;;;3.95;;
42134;SDS011;28312;43.460;11.810;2023-01-01T12:02:42;10.93;;;4.72;;
42134;SDS011;28312;43.460;11.810;2023-01-01T12:15:45;8.50;;;3.35;;
42134;SDS011;28312;43.460;11.810;2023-01-01T12:24:15;17.50;;;6.35;;
42134;SDS011;28312;43.460;11.810;2023-01-01T12:36:57;16.23;;;6.28;;
42134;SDS011;28312;43.460;11.810;2023-01-01T12:45:13;13.88;;;6.45;;
42134;SDS011;28312;43.460;11.810;2023-01-01T12:57:45;27.45;;;14.48;;
42134;SDS011;28312;43.460;11.810;2023-01-01T13:01:55;14.00;;;5.43;;
42134;SDS011;28312;43.460;11.810;2023-01-01T13:05:59;13.65;;;6.28;;
42134;SDS011;28312;43.460;11.810;2023-01-01T13:10:08;24.80;;;11.75;;
42134;SDS011;28312;43.460;11.810;2023-01-01T13:14:12;18.52;;;8.95;;
42134;SDS011;28312;43.460;11.810;2023-01-01T13:18:23;16.55;;;8.88;;
42134;SDS011;28312;43.460;11.810;2023-01-01T13:26:33;17.10;;;7.03;;
42134;SDS011;28312;43.460;11.810;2023-01-01T13:34:57;19.67;;;7.63;;
42134;SDS011;28312;43.460;11.810;2023-01-01T13:39:01;8.77;;;4.93;;
42134;SDS011;28312;43.460;11.810;2023-01-01T13:43:14;18.33;;;9.35;;
42134;SDS011;28312;43.460;11.810;2023-01-01T13:47:26;24.38;;;10.07;;
42134;SDS011;28312;43.460;11.810;2023-01-01T14:00:39;19.77;;;7.05;;
42134;SDS011;28312;43.460;11.810;2023-01-01T14:09:05;11.55;;;5.50;;
42134;SDS011;28312;43.460;11.810;2023-01-01T14:13:15;8.30;;;4.25;;
42134;SDS011;28312;43.460;11.810;2023-01-01T14:17:21;9.77;;;4.60;;
42134;SDS011;28312;43.460;11.810;2023-01-01T14:21:32;9.00;;;4.57;;
42134;SDS011;28312;43.460;11.810;2023-01-01T14:25:36;8.77;;;5.15;;
42134;SDS011;28312;43.460;11.810;2023-01-01T14:29:40;17.13;;;7.00;;
42134;SDS011;28312;43.460;11.810;2023-01-01T14:33:44;11.25;;;5.90;;
42134;SDS011;28312;43.460;11.810;2023-01-01T14:37:49;14.45;;;8.40;;
42134;SDS011;28312;43.460;11.810;2023-01-01T14:42:00;31.30;;;10.88;;
42134;SDS011;28312;43.460;11.810;2023-01-01T14:46:05;13.48;;;7.90;;
42134;SDS011;28312;43.460;11.810;2023-01-01T14:54:24;15.85;;;6.95;;
42134;SDS011;28312;43.460;11.810;2023-01-01T15:02:37;6.80;;;4.00;;
42134;SDS011;28312;43.460;11.810;2023-01-01T15:06:41;9.57;;;4.60;;
42134;SDS011;28312;43.460;11.810;2023-01-01T15:10:44;9.82;;;5.13;;
42134;SDS011;28312;43.460;11.810;2023-01-01T15:14:49;15.02;;;6.32;;
42134;SDS011;28312;43.460;11.810;2023-01-01T15:18:53;18.40;;;10.73;;
42134;SDS011;28312;43.460;11.810;2023-01-01T15:23:00;15.93;;;8.37;;
42134;SDS011;28312;43.460;11.810;2023-01-01T15:27:27;10.07;;;5.85;;
42134;SDS011;28312;43.460;11.810;2023-01-01T15:31:34;10.23;;;4.88;;
42134;SDS011;28312;43.460;11.810;2023-01-01T15:35:38;7.55;;;4.25;;
42134;SDS011;28312;43.460;11.810;2023-01-01T15:39:49;10.65;;;5.45;;
42134;SDS011;28312;43.460;11.810;2023-01-01T15:44:05;32.42;;;8.23;;
42134;SDS011;28312;43.460;11.810;2023-01-01T15:52:23;10.00;;;5.40;;
42134;SDS011;28312;43.460;11.810;2023-01-01T15:56:29;10.40;;;4.40;;
42134;SDS011;28312;43.460;11.810;2023-01-01T16:00:36;12.60;;;4.97;;
42134;SDS011;28312;43.460;11.810;2023-01-01T16:04:43;14.20;;;7.82;;
42134;SDS011;28312;43.460;11.810;2023-01-01T16:08:50;15.52;;;7.68;;
42134;SDS011;28312;43.460;11.810;2023-01-01T16:12:53;10.25;;;4.43;;
42134;SDS011;28312;43.460;11.810;2023-01-01T16:16:59;10.35;;;7.75;;
42134;SDS011;28312;43.460;11.810;2023-01-01T16:21:03;14.95;;;7.60;;
42134;SDS011;28312;43.460;11.810;2023-01-01T16:25:14;28.02;;;7.25;;
42134;SDS011;28312;43.460;11.810;2023-01-01T16:29:18;15.48;;;8.02;;
42134;SDS011;28312;43.460;11.810;2023-01-01T16:33:22;14.93;;;6.43;;
42134;SDS011;28312;43.460;11.810;2023-01-01T16:37:26;9.98;;;5.80;;
42134;SDS011;28312;43.460;11.810;2023-01-01T16:41:30;28.08;;;13.60;;
42134;SDS011;28312;43.460;11.810;2023-01-01T16:45:33;8.60;;;5.30;;
42134;SDS011;28312;43.460;11.810;2023-01-01T16:49:37;14.13;;;6.00;;
42134;SDS011;28312;43.460;11.810;2023-01-01T16:53:41;12.60;;;7.13;;
42134;SDS011;28312;43.460;11.810;2023-01-01T16:57:46;21.85;;;12.27;;
42134;SDS011;28312;43.460;11.810;2023-01-01T17:01:49;9.65;;;3.95;;
42134;SDS011;28312;43.460;11.810;2023-01-01T17:05:53;10.93;;;5.00;;
42134;SDS011;28312;43.460;11.810;2023-01-01T17:09:56;13.80;;;5.20;;
42134;SDS011;28312;43.460;11.810;2023-01-01T17:14:01;10.15;;;4.13;;
42134;SDS011;28312;43.460;11.810;2023-01-01T17:18:04;8.32;;;4.65;;
42134;SDS011;28312;43.460;11.810;2023-01-01T17:22:09;13.13;;;6.18;;
42134;SDS011;28312;43.460;11.810;2023-01-01T17:26:15;11.77;;;4.05;;
42134;SDS011;28312;43.460;11.810;2023-01-01T17:30:21;8.55;;;4.40;;
42134;SDS011;28312;43.460;11.810;2023-01-01T17:34:24;5.85;;;3.67;;
42134;SDS011;28312;43.460;11.810;2023-01-01T17:38:29;26.63;;;13.63;;
42134;SDS011;28312;43.460;11.810;2023-01-01T17:42:33;12.68;;;6.22;;
42134;SDS011;28312;43.460;11.810;2023-01-01T17:46:37;9.98;;;5.38;;
42134;SDS011;28312;43.460;11.810;2023-01-01T17:50:42;15.00;;;7.32;;
42134;SDS011;28312;43.460;11.810;2023-01-01T17:54:46;14.05;;;5.68;;
42134;SDS011;28312;43.460;11.810;2023-01-01T17:58:50;19.85;;;6.75;;
42134;SDS011;28312;43.460;11.810;2023-01-01T18:02:54;22.95;;;7.70;;
42134;SDS011;28312;43.460;11.810;2023-01-01T18:06:58;9.32;;;4.70;;
42134;SDS011;28312;43.460;11.810;2023-01-01T18:11:07;9.52;;;4.28;;
42134;SDS011;28312;43.460;11.810;2023-01-01T18:15:11;10.55;;;4.53;;
42134;SDS011;28312;43.460;11.810;2023-01-01T18:19:15;22.42;;;7.90;;
42134;SDS011;28312;43.460;11.810;2023-01-01T18:23:20;9.75;;;4.95;;
42134;SDS011;28312;43.460;11.810;2023-01-01T18:27:24;12.48;;;4.97;;
42134;SDS011;28312;43.460;11.810;2023-01-01T18:31:29;10.68;;;4.05;;
42134;SDS011;28312;43.460;11.810;2023-01-01T18:35:35;13.65;;;4.50;;
42134;SDS011;28312;43.460;11.810;2023-01-01T18:39:40;13.07;;;5.13;;
42134;SDS011;28312;43.460;11.810;2023-01-01T18:43:45;10.52;;;4.93;;
42134;SDS011;28312;43.460;11.810;2023-01-01T18:47:49;15.25;;;5.55;;
42134;SDS011;28312;43.460;11.810;2023-01-01T18:51:54;13.25;;;6.15;;
42134;SDS011;28312;43.460;11.810;2023-01-01T18:56:02;14.82;;;6.00;;
42134;SDS011;28312;43.460;11.810;2023-01-01T19:04:21;10.95;;;5.80;;
42134;SDS011;28312;43.460;11.810;2023-01-01T19:08:25;10.85;;;5.95;;
42134;SDS011;28312;43.460;11.810;2023-01-01T19:12:32;10.35;;;4.97;;
42134;SDS011;28312;43.460;11.810;2023-01-01T19:16:36;14.10;;;7.38;;
42134;SDS011;28312;43.460;11.810;2023-01-01T19:20:40;13.00;;;5.00;;
42134;SDS011;28312;43.460;11.810;2023-01-01T19:24:45;12.45;;;5.05;;
42134;SDS011;28312;43.460;11.810;2023-01-01T19:28:53;13.45;;;6.85;;
42134;SDS011;28312;43.460;11.810;2023-01-01T19:32:57;14.50;;;5.75;;
42134;SDS011;28312;43.460;11.810;2023-01-01T19:37:01;12.57;;;6.18;;
42134;SDS011;28312;43.460;11.810;2023-01-01T19:41:07;11.10;;;4.57;;
42134;SDS011;28312;43.460;11.810;2023-01-01T19:45:10;10.77;;;5.25;;
42134;SDS011;28312;43.460;11.810;2023-01-01T19:49:14;10.32;;;5.55;;
42134;SDS011;28312;43.460;11.810;2023-01-01T19:53:19;18.35;;;9.02;;
42134;SDS011;28312;43.460;11.810;2023-01-01T19:57:22;12.93;;;6.45;;
42134;SDS011;28312;43.460;11.810;2023-01-01T20:01:26;14.68;;;6.70;;
42134;SDS011;28312;43.460;11.810;2023-01-01T20:05:30;16.58;;;6.38;;
42134;SDS011;28312;43.460;11.810;2023-01-01T20:09:38;24.00;;;10.73;;
42134;SDS011;28312;43.460;11.810;2023-01-01T20:13:42;11.25;;;5.35;;
42134;SDS011;28312;43.460;11.810;2023-01-01T20:17:45;14.15;;;6.55;;
42134;SDS011;28312;43.460;11.810;2023-01-01T20:21:49;13.00;;;6.80;;
42134;SDS011;28312;43.460;11.810;2023-01-01T20:26:12;14.68;;;7.72;;
42134;SDS011;28312;43.460;11.810;2023-01-01T20:30:20;16.05;;;5.43;;
42134;SDS011;28312;43.460;11.810;2023-01-01T20:34:24;13.65;;;5.95;;
42134;SDS011;28312;43.460;11.810;2023-01-01T20:38:28;14.43;;;7.05;;
42134;SDS011;28312;43.460;11.810;2023-01-01T20:42:40;20.73;;;6.72;;
42134;SDS011;28312;43.460;11.810;2023-01-01T20:46:46;11.45;;;4.82;;
42134;SDS011;28312;43.460;11.810;2023-01-01T20:50:52;27.88;;;12.85;;
42134;SDS011;28312;43.460;11.810;2023-01-01T20:54:57;19.42;;;8.10;;
42134;SDS011;28312;43.460;11.810;2023-01-01T20:59:04;18.75;;;8.10;;
42134;SDS011;28312;43.460;11.810;2023-01-01T21:03:29;18.85;;;7.13;;
42134;SDS011;28312;43.460;11.810;2023-01-01T21:07:37;15.05;;;7.20;;
42134;SDS011;28312;43.460;11.810;2023-01-01T21:11:42;22.05;;;7.53;;
42134;SDS011;28312;43.460;11.810;2023-01-01T21:15:48;10.20;;;5.53;;
42134;SDS011;28312;43.460;11.810;2023-01-01T21:24:01;17.63;;;7.43;;
42134;SDS011;28312;43.460;11.810;2023-01-01T21:28:11;15.60;;;7.15;;
42134;SDS011;28312;43.460;11.810;2023-01-01T21:32:27;36.30;;;9.77;;
42134;SDS011;28312;43.460;11.810;2023-01-01T21:36:37;8.35;;;4.50;;
42134;SDS011;28312;43.460;11.810;2023-01-01T21:40:46;14.55;;;6.68;;
42134;SDS011;28312;43.460;11.810;2023-01-01T21:44:55;10.15;;;5.88;;
42134;SDS011;28312;43.460;11.810;2023-01-01T21:49:01;19.05;;;7.53;;
42134;SDS011;28312;43.460;11.810;2023-01-01T21:53:48;10.57;;;5.60;;
42134;SDS011;28312;43.460;11.810;2023-01-01T21:57:32;11.97;;;5.23;;
42134;SDS011;28312;43.460;11.810;2023-01-01T22:05:42;23.23;;;10.23;;
42134;SDS011;28312;43.460;11.810;2023-01-01T22:09:48;18.73;;;10.10;;
42134;SDS011;28312;43.460;11.810;2023-01-01T22:13:53;12.25;;;6.57;;
42134;SDS011;28312;43.460;11.810;2023-01-01T22:22:09;11.40;;;5.22;;
42134;SDS011;28312;43.460;11.810;2023-01-01T22:26:15;26.77;;;10.73;;
42134;SDS011;28312;43.460;11.810;2023-01-01T22:30:39;17.48;;;8.63;;
42134;SDS011;28312;43.460;11.810;2023-01-01T22:34:45;10.32;;;5.70;;
42134;SDS011;28312;43.460;11.810;2023-01-01T22:38:49;10.75;;;4.95;;
42134;SDS011;28312;43.460;11.810;2023-01-01T22:42:55;9.45;;;4.72;;
42134;SDS011;28312;43.460;11.810;2023-01-01T22:46:59;11.10;;;5.47;;
42134;SDS011;28312;43.460;11.810;2023-01-01T22:51:12;15.45;;;5.82;;
42134;SDS011;28312;43.460;11.810;2023-01-01T22:55:19;9.90;;;4.32;;
42134;SDS011;28312;43.460;11.810;2023-01-01T22:59:24;11.55;;;5.18;;
42134;SDS011;28312;43.460;11.810;2023-01-01T23:03:27;17.73;;;7.65;;
42134;SDS011;28312;43.460;11.810;2023-01-01T23:07:32;19.33;;;7.25;;
42134;SDS011;28312;43.460;11.810;2023-01-01T23:11:43;28.73;;;11.10;;
42134;SDS011;28312;43.460;11.810;2023-01-01T23:15:46;14.57;;;5.60;;
42134;SDS011;28312;43.460;11.810;2023-01-01T23:20:03;13.95;;;6.55;;
42134;SDS011;28312;43.460;11.810;2023-01-01T23:24:08;15.50;;;5.85;;
42134;SDS011;28312;43.460;11.810;2023-01-01T23:28:12;11.85;;;5.20;;
42134;SDS011;28312;43.460;11.810;2023-01-01T23:32:16;23.65;;;5.53;;
42134;SDS011;28312;43.460;11.810;2023-01-01T23:36:20;11.10;;;5.90;;
42134;SDS011;28312;43.460;11.810;2023-01-01T23:40:24;11.70;;;5.07;;
42134;SDS011;28312;43.460;11.810;2023-01-01T23:44:28;22.40;;;9.63;;
42134;SDS011;28312;43.460;11.810;2023-01-01T23:48:31;13.57;;;5.72;;
42134;SDS011;28312;43.460;11.810;2023-01-01T23:52:35;15.98;;;7.75;;
42134;SDS011;28312;43.460;11.810;2023-01-01T23:56:39;19.15;;;8.07;;
